Time;durP1;ratioP1;P1;durP2;ratioP2;P2;SDS_P1;SDS_P2;PMS_P1;PMS_P2;Temp;Humidity;BMP_temperature;BMP_pressure;BME280_temperature;BME280_humidity;BME280_pressure;Samples;Min_cycle;Max_cycle;Signal;HPM_P1;HPM_P2
2023/05/03 00:01:02;;;;;;;5.90;2.85;;;;;;;6.20;60.79;101676.22;10088014;29;20528;-77
2023/05/03 00:06:11;;;;;;;4.97;2.75;;;;;;;5.98;61.50;101670.00;10088816;29;20049;-78
2023/05/03 00:11:16;;;;;;;4.32;2.80;;;;;;;5.97;61.89;101662.94;10102398;29;20048;-79
2023/05/03 00:16:19;;;;;;;7.63;3.13;;;;;;;5.74;62.38;101662.09;10089010;29;20053;-79
2023/05/03 00:21:22;;;;;;;8.15;2.97;;;;;;;5.79;62.29;101660.13;10103010;29;20064;-79
2023/05/03 00:26:27;;;;;;;6.90;2.92;;;;;;;5.86;62.14;101666.91;10104735;29;20105;-79
2023/05/03 00:31:30;;;;;;;8.20;3.58;;;;;;;5.83;62.15;101668.84;10099390;29;20112;-78
2023/05/03 00:36:33;;;;;;;10.73;3.13;;;;;;;5.73;62.27;101674.56;10085433;29;20052;-79
2023/05/03 00:41:40;;;;;;;10.82;3.78;;;;;;;5.63;62.45;101669.66;10102071;29;20047;-79
2023/05/03 00:46:43;;;;;;;8.27;3.75;;;;;;;5.53;62.56;101670.94;10080307;29;20045;-80
2023/05/03 00:51:46;;;;;;;7.55;3.42;;;;;;;5.35;63.19;101662.75;10097037;29;20049;-79
2023/05/03 00:56:50;;;;;;;5.72;3.55;;;;;;;5.36;63.42;101664.47;10096805;29;20109;-79
2023/05/03 01:01:54;;;;;;;7.57;3.35;;;;;;;5.21;63.37;101657.06;10081581;29;20112;-78
2023/05/03 01:07:09;;;;;;;3.97;3.13;;;;;;;5.16;64.04;101665.25;10097329;29;20041;-78
2023/05/03 01:12:28;;;;;;;5.13;3.47;;;;;;;5.05;64.17;101672.78;10094868;29;20071;-78
2023/05/03 01:17:36;;;;;;;7.32;3.55;;;;;;;4.80;64.90;101671.00;10097740;29;21071;-79
2023/05/03 01:22:46;;;;;;;7.50;3.63;;;;;;;4.68;65.64;101668.75;10094502;29;20511;-79
2023/05/03 01:27:51;;;;;;;5.65;3.60;;;;;;;4.77;65.85;101675.53;10097781;29;20052;-78
2023/05/03 01:33:00;;;;;;;7.28;3.65;;;;;;;4.72;65.35;101674.88;10097668;29;20041;-78
2023/05/03 01:38:04;;;;;;;4.65;3.70;;;;;;;4.53;66.22;101664.88;10082668;29;20083;-79
2023/05/03 01:43:12;;;;;;;5.20;3.72;;;;;;;4.52;66.55;101673.75;10096122;29;20350;-78
2023/05/03 01:48:16;;;;;;;9.25;4.25;;;;;;;4.37;66.60;101677.84;10089333;29;20459;-78
2023/05/03 01:53:18;;;;;;;9.18;4.43;;;;;;;4.29;67.42;101687.00;10087576;29;20097;-78
2023/05/03 01:58:23;;;;;;;9.10;4.47;;;;;;;4.36;67.38;101683.19;10092897;29;20572;-79
2023/05/03 02:03:25;;;;;;;11.07;4.18;;;;;;;4.24;67.54;101678.31;10074740;29;20049;-79
2023/05/03 02:08:28;;;;;;;11.18;3.58;;;;;;;3.99;68.20;101691.56;10098224;29;20057;-79
2023/05/03 02:13:32;;;;;;;11.98;4.18;;;;;;;3.67;69.67;101702.28;10102479;29;20041;-78
2023/05/03 02:18:35;;;;;;;11.13;4.40;;;;;;;3.59;70.08;101696.34;10083160;29;20133;-79
2023/05/03 02:23:38;;;;;;;11.55;4.82;;;;;;;3.84;69.97;101695.56;10097838;29;20045;-79
2023/05/03 02:28:42;;;;;;;13.80;4.60;;;;;;;4.14;69.40;101689.28;10102600;29;20105;-78
2023/05/03 02:33:45;;;;;;;11.93;3.85;;;;;;;4.23;68.34;101704.03;10089040;29;20128;-78
2023/05/03 02:38:48;;;;;;;6.30;3.70;;;;;;;4.16;67.73;101706.03;10107189;29;20055;-78
2023/05/03 02:43:52;;;;;;;8.32;3.55;;;;;;;4.06;67.52;101709.94;10106723;29;20509;-78
2023/05/03 02:48:55;;;;;;;6.22;3.63;;;;;;;4.13;67.42;101714.09;10105681;29;20108;-79
2023/05/03 02:53:58;;;;;;;7.88;4.10;;;;;;;4.10;67.09;101714.22;10109805;29;20053;-78
2023/05/03 02:59:02;;;;;;;7.88;4.85;;;;;;;3.99;67.44;101723.47;10109812;29;20070;-78
2023/05/03 03:04:06;;;;;;;6.65;3.70;;;;;;;3.91;67.51;101729.03;10084475;29;20952;-78
2023/05/03 03:09:11;;;;;;;8.57;4.63;;;;;;;3.80;67.61;101728.50;10107633;29;20140;-79
2023/05/03 03:14:16;;;;;;;6.47;3.95;;;;;;;3.66;67.98;101723.59;10108625;29;20045;-79
2023/05/03 03:19:19;;;;;;;11.57;4.70;;;;;;;3.51;68.51;101724.94;10084452;29;20071;-78
2023/05/03 03:24:22;;;;;;;8.45;4.10;;;;;;;3.63;68.72;101716.59;10088715;29;20528;-78
2023/05/03 03:29:30;;;;;;;10.75;4.63;;;;;;;3.73;68.35;101710.09;10087394;29;20053;-78
2023/05/03 03:34:33;;;;;;;10.45;4.28;;;;;;;3.70;67.91;101710.19;10157262;23;20074;-78
2023/05/03 03:39:38;;;;;;;11.70;6.93;;;;;;;3.58;67.34;101701.72;10195412;29;20044;-78
2023/05/03 03:44:42;;;;;;;8.25;4.65;;;;;;;3.64;67.37;101705.03;10179748;29;20080;-77
2023/05/03 03:49:45;;;;;;;5.13;4.40;;;;;;;3.61;67.18;101698.97;10154272;29;20170;-78
2023/05/03 03:54:48;;;;;;;8.38;4.65;;;;;;;3.64;67.37;101705.03;10158969;29;20052;-75
2023/05/03 03:59:52;;;;;;;11.65;5.00;;;;;;;3.58;67.64;101705.22;10134308;29;20049;-77
2023/05/03 04:04:55;;;;;;;7.78;4.78;;;;;;;3.73;67.94;101702.13;10134345;29;20136;-78
2023/05/03 04:09:58;;;;;;;6.93;4.70;;;;;;;3.79;67.37;101698.38;10094285;29;20068;-79
2023/05/03 04:15:03;;;;;;;7.05;4.53;;;;;;;3.84;67.10;101699.13;10082024;29;20060;-79
2023/05/03 04:20:09;;;;;;;8.75;4.93;;;;;;;3.78;67.15;101701.09;10072625;29;20059;-78
2023/05/03 04:25:15;;;;;;;6.75;4.03;;;;;;;3.73;67.13;101711.88;10081731;29;20181;-77
2023/05/03 04:30:24;;;;;;;8.88;4.78;;;;;;;3.79;67.37;101709.03;10071949;29;20053;-78
2023/05/03 04:35:30;;;;;;;8.88;5.15;;;;;;;3.94;67.09;101716.50;10070394;29;20059;-77
2023/05/03 04:40:36;;;;;;;10.95;5.22;;;;;;;3.93;67.12;101704.13;10073587;29;21437;-78
2023/05/03 04:45:44;;;;;;;11.02;5.00;;;;;;;4.01;67.34;101718.97;10086851;29;20049;-77
2023/05/03 04:50:52;;;;;;;10.93;5.35;;;;;;;4.12;67.64;101719.50;10088955;29;20056;-77
2023/05/03 04:55:57;;;;;;;8.48;5.43;;;;;;;4.12;67.50;101717.69;10091703;29;20048;-78
2023/05/03 05:01:02;;;;;;;13.18;5.30;;;;;;;4.23;67.84;101713.81;10071767;29;20132;-80
2023/05/03 05:06:08;;;;;;;8.88;5.30;;;;;;;4.31;67.65;101719.75;10078496;29;20060;-77
2023/05/03 05:11:14;;;;;;;10.23;6.05;;;;;;;4.43;67.82;101723.78;10081204;29;20056;-79
2023/05/03 05:16:19;;;;;;;12.45;5.65;;;;;;;4.44;67.60;101717.53;10099776;29;20082;-79
2023/05/03 05:21:27;;;;;;;8.70;5.40;;;;;;;4.46;67.57;101716.56;10089635;29;20056;-79
2023/05/03 05:26:31;;;;;;;16.02;6.13;;;;;;;4.51;67.93;101711.94;10088649;29;20173;-79
2023/05/03 05:31:36;;;;;;;13.50;6.35;;;;;;;4.46;67.93;101724.53;10082667;29;20052;-76
2023/05/03 05:36:41;;;;;;;12.20;6.07;;;;;;;4.44;67.81;101728.16;10103373;29;20045;-77
2023/05/03 05:41:45;;;;;;;13.32;6.20;;;;;;;4.61;67.89;101739.13;10100677;29;20051;-74
2023/05/03 05:46:49;;;;;;;10.75;5.90;;;;;;;4.79;69.18;101742.91;10076599;29;20056;-79
2023/05/03 05:51:54;;;;;;;13.00;4.93;;;;;;;5.63;69.93;101754.97;10069129;29;20044;-77
2023/05/03 05:56:57;;;;;;;5.68;3.40;;;;;;;5.82;65.89;101756.00;10080565;29;20097;-78
2023/05/03 06:02:02;;;;;;;6.20;3.55;;;;;;;6.39;66.20;101756.38;10089794;29;20056;-79
2023/05/03 06:07:05;;;;;;;5.07;3.67;;;;;;;6.41;64.32;101762.50;10093017;29;20057;-78
2023/05/03 06:12:09;;;;;;;9.05;4.70;;;;;;;6.38;64.04;101763.47;10093218;29;20064;-78
2023/05/03 06:17:17;;;;;;;9.48;5.55;;;;;;;6.67;63.45;101776.56;10096873;29;20192;-78
2023/05/03 06:22:20;;;;;;;8.73;4.55;;;;;;;6.81;61.69;101774.16;10096093;29;20123;-77
2023/05/03 06:27:24;;;;;;;10.82;5.22;;;;;;;6.98;61.73;101774.31;10112498;29;20061;-75
2023/05/03 06:32:30;;;;;;;16.65;5.53;;;;;;;7.16;60.28;101779.78;10106864;29;20051;-76
2023/05/03 06:37:33;;;;;;;12.95;5.20;;;;;;;7.33;60.42;101779.03;10122208;29;20082;-78
2023/05/03 06:42:36;;;;;;;8.00;4.35;;;;;;;7.68;60.73;101774.75;10093946;29;20068;-79
2023/05/03 06:47:49;;;;;;;8.82;4.22;;;;;;;7.94;59.60;101781.53;10103205;29;20048;-77
2023/05/03 06:52:53;;;;;;;9.77;4.30;;;;;;;8.21;58.32;101782.00;10083538;29;20077;-77
2023/05/03 06:57:56;;;;;;;10.50;4.40;;;;;;;8.26;57.29;101776.44;10097937;29;20116;-78
2023/05/03 07:03:01;;;;;;;8.85;3.58;;;;;;;8.62;56.65;101776.44;10105284;29;20057;-79
2023/05/03 07:08:04;;;;;;;5.85;3.80;;;;;;;8.80;54.70;101777.28;10099618;29;20087;-79
2023/05/03 07:13:07;;;;;;;7.72;4.15;;;;;;;9.04;54.04;101776.00;10102385;29;20663;-78
2023/05/03 07:18:11;;;;;;;6.47;3.17;;;;;;;9.40;52.99;101771.44;10088667;29;20125;-77
2023/05/03 07:23:14;;;;;;;5.15;2.10;;;;;;;9.77;51.70;101775.66;10083960;29;20060;-78
2023/05/03 07:28:17;;;;;;;6.38;2.83;;;;;;;9.72;50.68;101773.22;10085476;29;20052;-78
2023/05/03 07:33:22;;;;;;;5.35;2.53;;;;;;;9.69;50.94;101767.19;10105763;29;20123;-79
2023/05/03 07:38:25;;;;;;;5.70;2.47;;;;;;;10.39;50.09;101757.84;10103620;29;20060;-75
2023/05/03 07:43:28;;;;;;;5.05;2.35;;;;;;;11.14;47.12;101746.22;10087208;29;20725;-77
2023/05/03 07:48:32;;;;;;;6.25;1.35;;;;;;;11.16;44.29;101738.91;10096991;29;20067;-78
2023/05/03 07:53:35;;;;;;;6.63;1.70;;;;;;;11.55;44.41;101751.69;10098126;29;20159;-78
2023/05/03 07:58:38;;;;;;;4.15;1.55;;;;;;;11.77;43.99;101745.81;10094834;29;20056;-77
2023/05/03 08:03:44;;;;;;;4.38;1.88;;;;;;;12.16;43.62;101739.63;10098476;29;20052;-78
2023/05/03 08:08:47;;;;;;;5.47;1.55;;;;;;;12.56;42.37;101731.59;10092702;29;20053;-78
2023/05/03 08:13:50;;;;;;;3.80;1.65;;;;;;;13.12;42.20;101725.94;10085710;29;20056;-78
2023/05/03 08:18:55;;;;;;;4.65;1.58;;;;;;;12.70;41.28;101721.69;10098898;29;20493;-79
2023/05/03 08:23:58;;;;;;;5.53;2.38;;;;;;;12.45;40.34;101727.88;10090194;29;20469;-78
2023/05/03 08:29:02;;;;;;;4.80;1.50;;;;;;;12.42;41.08;101723.56;10082110;29;20409;-77
2023/05/03 08:34:06;;;;;;;3.30;1.63;;;;;;;12.72;41.52;101722.44;10092587;29;20052;-78
2023/05/03 08:39:10;;;;;;;6.55;1.88;;;;;;;12.98;40.27;101721.50;10078472;29;20053;-79
2023/05/03 08:44:21;;;;;;;10.32;2.10;;;;;;;13.35;39.39;101715.31;10090088;29;20061;-77
2023/05/03 08:49:25;;;;;;;6.03;1.48;;;;;;;13.08;39.26;101712.75;10108160;29;20057;-77
2023/05/03 08:54:29;;;;;;;6.60;1.63;;;;;;;13.50;40.36;101714.25;10106602;29;20053;-74
2023/05/03 08:59:32;;;;;;;5.20;2.20;;;;;;;14.10;39.03;101704.44;10109549;29;20460;-78
2023/05/03 09:04:36;;;;;;;4.10;1.50;;;;;;;14.03;38.70;101713.97;10084748;29;20055;-77
2023/05/03 09:09:39;;;;;;;5.15;1.35;;;;;;;13.38;38.19;101716.00;10099739;29;20064;-77
2023/05/03 09:14:43;;;;;;;7.95;1.90;;;;;;;13.90;39.22;101719.41;10077887;29;20069;-78
2023/05/03 09:19:55;;;;;;;9.80;1.85;;;;;;;14.73;37.28;101713.19;10095331;29;20123;-78
2023/05/03 09:24:59;;;;;;;7.07;1.58;;;;;;;15.26;37.32;101708.94;10089631;29;20134;-77
2023/05/03 09:30:18;;;;;;;3.00;1.75;;;;;;;14.86;37.11;101700.41;10100433;29;20053;-77
2023/05/03 09:35:22;;;;;;;2.35;1.33;;;;;;;14.37;38.05;101709.56;10117100;29;20122;-77
2023/05/03 09:40:25;;;;;;;2.92;1.60;;;;;;;13.92;36.50;101707.53;10110425;29;20140;-77
2023/05/03 09:45:30;;;;;;;4.32;1.60;;;;;;;14.62;37.39;101705.03;10085357;29;20048;-78
2023/05/03 09:50:35;;;;;;;3.00;1.95;;;;;;;14.87;36.63;101718.38;10088389;29;21506;-78
2023/05/03 09:55:40;;;;;;;4.18;1.92;;;;;;;14.92;36.04;101696.34;10081383;29;20068;-77
2023/05/03 10:00:47;;;;;;;5.78;2.03;;;;;;;15.68;35.23;101692.91;10095713;29;20064;-77
2023/05/03 10:05:55;;;;;;;5.60;2.22;;;;;;;15.52;35.63;101691.59;10088812;29;20092;-78
2023/05/03 10:10:59;;;;;;;4.25;1.98;;;;;;;15.74;36.58;101683.44;10123565;29;20111;-75
2023/05/03 10:16:07;;;;;;;6.75;1.90;;;;;;;16.16;34.24;101683.56;10105599;29;20052;-77
2023/05/03 10:21:19;;;;;;;9.75;3.20;;;;;;;15.77;34.22;101663.34;10068372;29;20056;-77
2023/05/03 10:26:23;;;;;;;;;;;;;;;16.23;36.29;101664.91;10084151;29;20073;-77
2023/05/03 10:31:44;;;;;;;6.38;2.20;;;;;;;16.82;33.83;101669.78;10095135;29;20078;-78
2023/05/03 10:36:52;;;;;;;5.95;2.25;;;;;;;16.56;34.08;101659.38;10092436;29;20052;-77
2023/05/03 10:42:00;;;;;;;5.97;2.10;;;;;;;16.67;33.11;101657.56;10095425;29;20077;-78
2023/05/03 10:47:11;;;;;;;4.80;2.15;;;;;;;17.12;34.26;101668.94;10104098;29;20048;-77
2023/05/03 10:52:47;;;;;;;5.38;2.85;;;;;;;17.38;33.44;101658.47;10097294;29;20132;-78
2023/05/03 10:57:54;;;;;;;4.80;2.42;;;;;;;17.30;34.74;101666.47;10102355;29;20067;-79
2023/05/03 11:03:31;;;;;;;8.02;2.47;;;;;;;17.41;32.82;101649.19;10121397;29;20040;-79
2023/05/03 11:08:36;;;;;;;6.63;2.08;;;;;;;17.02;33.53;101657.16;10112611;29;20053;-78
2023/05/03 11:13:41;;;;;;;5.70;2.67;;;;;;;17.78;33.79;101641.28;10109940;29;22071;-78
2023/05/03 11:18:44;;;;;;;8.77;2.55;;;;;;;18.34;32.65;101631.56;10080077;29;20049;-79
2023/05/03 11:23:47;;;;;;;4.80;2.83;;;;;;;18.59;32.45;101616.47;10099615;29;20056;-78
2023/05/03 11:28:53;;;;;;;4.55;2.92;;;;;;;18.62;30.51;101609.88;10103786;29;20071;-79
2023/05/03 11:33:56;;;;;;;4.75;2.60;;;;;;;18.18;32.42;101606.81;10099362;29;20056;-79
2023/05/03 11:39:00;;;;;;;4.82;2.58;;;;;;;18.88;30.98;101604.69;10088263;29;20060;-78
2023/05/03 11:44:04;;;;;;;4.78;3.30;;;;;;;18.70;30.15;101605.41;10092842;29;20120;-79
2023/05/03 11:49:18;;;;;;;6.95;2.70;;;;;;;19.24;31.35;101594.75;10094563;29;20906;-77
2023/05/03 11:54:22;;;;;;;8.27;3.10;;;;;;;19.50;31.00;101583.13;10101446;29;20067;-77
2023/05/03 11:59:38;;;;;;;8.27;3.25;;;;;;;20.25;30.20;101587.25;10096379;29;20114;-78
2023/05/03 12:04:42;;;;;;;5.60;2.75;;;;;;;19.76;29.37;101596.91;10105476;29;20045;-77
2023/05/03 12:09:48;;;;;;;7.18;2.92;;;;;;;19.12;29.65;101585.09;10097001;29;20144;-77
2023/05/03 12:15:12;;;;;;;4.80;2.58;;;;;;;19.72;30.32;101592.75;10087261;29;20902;-78
2023/05/03 12:20:22;;;;;;;4.75;3.50;;;;;;;20.11;29.42;101580.50;10097809;29;20056;-77
2023/05/03 12:25:29;;;;;;;7.22;2.97;;;;;;;19.94;28.88;101581.41;10102625;29;20139;-78
2023/05/03 12:30:37;;;;;;;7.32;2.97;;;;;;;19.55;29.48;101578.06;10090274;29;20104;-78
2023/05/03 12:35:42;;;;;;;5.10;2.80;;;;;;;19.93;29.91;101581.53;10096554;29;20048;-76
2023/05/03 12:40:49;;;;;;;5.53;3.15;;;;;;;21.01;28.56;101567.44;10127511;29;20082;-77
2023/05/03 12:45:55;;;;;;;4.38;2.80;;;;;;;20.62;29.67;101563.47;10084770;29;20061;-77
2023/05/03 12:51:18;;;;;;;4.00;3.10;;;;;;;20.66;28.58;101553.97;10057211;29;20052;-77
2023/05/03 12:56:27;;;;;;;4.50;3.10;;;;;;;20.95;28.77;101557.19;10064280;29;20520;-78
2023/05/03 13:01:36;;;;;;;6.82;3.05;;;;;;;20.18;29.99;101550.72;10071981;29;20076;-78
2023/05/03 13:06:59;;;;;;;5.45;3.13;;;;;;;20.45;29.19;101548.88;10068786;29;20073;-78
2023/05/03 13:12:03;;;;;;;4.03;2.72;;;;;;;20.93;28.46;101537.34;10099483;29;20724;-78
2023/05/03 13:17:08;;;;;;;5.57;3.30;;;;;;;21.41;29.39;101524.03;10083397;29;20140;-77
2023/05/03 13:22:11;;;;;;;5.47;2.80;;;;;;;21.74;28.01;101524.91;10098962;29;20048;-76
2023/05/03 13:27:15;;;;;;;5.95;4.15;;;;;;;21.16;29.34;101523.13;10086530;29;20516;-78
2023/05/03 13:32:19;;;;;;;9.57;3.60;;;;;;;21.61;29.02;101510.88;10102796;29;20049;-78
2023/05/03 13:37:23;;;;;;;10.15;3.40;;;;;;;21.92;28.89;101507.53;10101423;29;20579;-77
2023/05/03 13:42:26;;;;;;;7.70;4.22;;;;;;;21.93;29.30;101498.28;10094097;29;20053;-77
2023/05/03 13:47:30;;;;;;;7.78;3.88;;;;;;;21.84;28.28;101500.16;10097913;29;20053;-79
2023/05/03 13:52:54;;;;;;;6.45;3.55;;;;;;;21.70;28.11;101482.53;10097537;29;20052;-77
2023/05/03 13:57:56;;;;;;;7.68;3.78;;;;;;;22.03;29.50;101472.44;10095409;29;20068;-76
2023/05/03 14:03:01;;;;;;;7.03;3.92;;;;;;;21.82;27.36;101459.31;10102337;29;20967;-77
2023/05/03 14:08:04;;;;;;;4.85;3.45;;;;;;;21.23;28.74;101470.38;10112430;29;20116;-78
2023/05/03 14:13:07;;;;;;;4.13;3.25;;;;;;;21.94;28.75;101464.41;10096945;29;20108;-78
2023/05/03 14:18:12;;;;;;;5.85;4.03;;;;;;;21.88;27.85;101449.56;10102293;29;20045;-76
2023/05/03 14:23:15;;;;;;;5.20;3.58;;;;;;;21.75;29.08;101447.38;10102109;29;20068;-78
2023/05/03 14:28:19;;;;;;;8.30;3.35;;;;;;;22.26;27.97;101447.94;10107176;29;20055;-79
2023/05/03 14:33:23;;;;;;;8.38;3.80;;;;;;;21.76;27.48;101435.38;10086149;29;20048;-78
2023/05/03 14:38:26;;;;;;;7.85;4.47;;;;;;;21.42;28.14;101441.03;10079167;29;20045;-77
2023/05/03 14:43:30;;;;;;;8.02;4.07;;;;;;;21.26;28.38;101430.94;10091357;29;20052;-76
2023/05/03 14:48:34;;;;;;;7.45;3.78;;;;;;;21.47;29.02;101422.22;10091531;29;20075;-75
2023/05/03 14:53:37;;;;;;;4.57;3.60;;;;;;;21.00;28.79;101414.63;10096996;29;20045;-77
2023/05/03 14:58:40;;;;;;;8.07;4.45;;;;;;;21.83;27.99;101405.44;10106341;29;20435;-77
2023/05/03 15:03:44;;;;;;;5.72;3.72;;;;;;;22.02;27.58;101391.41;10095578;29;20093;-77
2023/05/03 15:08:47;;;;;;;6.70;3.50;;;;;;;21.29;27.89;101396.94;10103270;29;20056;-76
2023/05/03 15:13:50;;;;;;;7.35;3.53;;;;;;;21.04;28.40;101388.72;10089626;29;20193;-77
2023/05/03 15:18:54;;;;;;;5.05;3.10;;;;;;;20.83;27.45;101388.31;10085170;29;20057;-76
2023/05/03 15:23:57;;;;;;;7.63;3.30;;;;;;;20.67;29.08;101391.88;10089881;29;20125;-76
2023/05/03 15:29:00;;;;;;;6.38;3.80;;;;;;;20.50;28.38;101389.09;10105456;29;20056;-76
2023/05/03 15:34:06;;;;;;;6.03;3.17;;;;;;;20.83;28.13;101380.97;10102174;29;20056;-76
2023/05/03 15:39:09;;;;;;;8.27;4.07;;;;;;;20.55;28.67;101388.59;10098779;29;20052;-77
2023/05/03 15:44:13;;;;;;;10.23;3.88;;;;;;;20.14;29.03;101380.22;10092001;29;20136;-77
2023/05/03 15:49:17;;;;;;;7.25;3.28;;;;;;;20.44;29.04;101380.72;10098317;29;20127;-78
2023/05/03 15:54:21;;;;;;;5.32;3.60;;;;;;;20.81;28.62;101380.28;10093333;29;20139;-77
2023/05/03 15:59:24;;;;;;;4.85;3.70;;;;;;;20.87;27.72;101378.75;10092150;29;20058;-77
2023/05/03 16:04:28;;;;;;;8.80;3.67;;;;;;;20.83;29.38;101370.06;10101074;29;20152;-77
2023/05/03 16:09:31;;;;;;;5.93;3.20;;;;;;;20.73;29.11;101377.53;10108658;29;20052;-77
2023/05/03 16:14:35;;;;;;;5.93;3.13;;;;;;;20.47;29.25;101373.03;10104203;29;20048;-79
2023/05/03 16:19:39;;;;;;;3.85;2.90;;;;;;;20.90;28.42;101364.75;10091949;29;20080;-77
2023/05/03 16:24:42;;;;;;;6.95;3.03;;;;;;;20.49;29.16;101376.47;10100574;29;20596;-77
2023/05/03 16:29:45;;;;;;;7.07;3.67;;;;;;;20.13;30.01;101365.72;10099106;29;20198;-79
2023/05/03 16:34:49;;;;;;;5.88;3.53;;;;;;;19.21;31.02;101378.03;10100981;29;20108;-79
2023/05/03 16:39:52;;;;;;;6.25;3.58;;;;;;;19.38;31.10;101372.72;10099157;29;20051;-77
2023/05/03 16:44:55;;;;;;;4.38;2.60;;;;;;;19.82;31.02;101372.72;10096281;29;20063;-79
2023/05/03 16:50:00;;;;;;;7.85;4.13;;;;;;;19.61;30.28;101362.16;10095071;29;21771;-76
2023/05/03 16:55:03;;;;;;;7.72;4.00;;;;;;;19.88;30.69;101358.41;10081411;29;20060;-79
2023/05/03 17:00:08;;;;;;;8.40;3.78;;;;;;;20.35;30.51;101347.09;10095027;29;20076;-79
2023/05/03 17:05:14;;;;;;;6.85;3.88;;;;;;;22.66;28.24;101342.03;10097895;29;20044;-79
2023/05/03 17:10:16;;;;;;;3.95;3.30;;;;;;;26.57;24.53;101330.25;10095682;29;20057;-78
2023/05/03 17:15:19;;;;;;;7.65;3.15;;;;;;;26.13;24.17;101339.81;10096802;29;20077;-78
2023/05/03 17:20:24;;;;;;;4.40;3.28;;;;;;;25.87;24.14;101334.19;10110525;29;20056;-78
2023/05/03 17:25:27;;;;;;;8.07;3.42;;;;;;;23.74;26.02;101337.38;10121753;29;20784;-76
2023/05/03 17:30:30;;;;;;;4.70;3.60;;;;;;;23.26;27.15;101336.81;10134612;29;20048;-78
2023/05/03 17:35:34;;;;;;;8.77;2.85;;;;;;;24.12;25.89;101338.13;10131546;29;21115;-79
2023/05/03 17:40:39;;;;;;;2.88;2.50;;;;;;;22.35;27.84;101331.06;10114202;29;20112;-77
2023/05/03 17:45:43;;;;;;;7.15;2.97;;;;;;;20.79;29.37;101327.75;10106639;29;20052;-78
2023/05/03 17:50:57;;;;;;;7.90;3.35;;;;;;;17.87;32.61;101338.72;10139477;29;20116;-77
2023/05/03 17:56:00;;;;;;;6.20;3.53;;;;;;;16.73;34.98;101334.16;10133639;29;20048;-77
2023/05/03 18:01:03;;;;;;;4.05;2.63;;;;;;;16.32;35.56;101339.66;10121663;29;20132;-77
2023/05/03 18:06:10;;;;;;;6.88;2.80;;;;;;;15.55;36.86;101347.41;10114971;29;20068;-77
2023/05/03 18:11:13;;;;;;;5.88;3.00;;;;;;;15.04;37.53;101346.34;10114877;29;20097;-76
2023/05/03 18:16:16;;;;;;;6.88;2.78;;;;;;;14.75;37.79;101346.06;10116910;29;20077;-77
2023/05/03 18:21:22;;;;;;;4.90;1.95;;;;;;;14.53;38.06;101347.00;10114245;29;21176;-77
2023/05/03 18:26:25;;;;;;;4.75;2.33;;;;;;;14.33;38.78;101352.16;10096189;29;20049;-78
2023/05/03 18:31:28;;;;;;;7.50;2.20;;;;;;;14.16;38.93;101361.66;10105654;29;20077;-77
2023/05/03 18:36:32;;;;;;;4.47;2.13;;;;;;;13.90;39.14;101354.78;10125436;29;20104;-77
2023/05/03 18:41:36;;;;;;;4.35;2.17;;;;;;;13.65;39.57;101358.56;10122417;29;20092;-77
2023/05/03 18:46:39;;;;;;;8.02;2.38;;;;;;;13.51;39.97;101356.94;10119480;29;20084;-78
2023/05/03 18:51:43;;;;;;;3.65;2.33;;;;;;;13.36;40.10;101350.03;10115415;29;20894;-78
2023/05/03 18:56:46;;;;;;;9.27;3.88;;;;;;;13.22;40.41;101346.56;10105183;29;20804;-76
2023/05/03 19:01:49;;;;;;;5.85;2.67;;;;;;;13.01;40.96;101348.19;10123376;29;20053;-76
2023/05/03 19:06:53;;;;;;;6.93;3.35;;;;;;;12.93;41.05;101347.94;10113983;29;20068;-78
2023/05/03 19:11:57;;;;;;;12.48;3.10;;;;;;;12.77;41.59;101343.69;10108733;29;20056;-79
2023/05/03 19:17:00;;;;;;;5.63;2.40;;;;;;;12.66;41.46;101348.16;10121280;29;20056;-77
2023/05/03 19:22:04;;;;;;;9.70;2.50;;;;;;;12.50;42.15;101351.13;10109661;29;20072;-77
2023/05/03 19:27:07;;;;;;;4.03;2.50;;;;;;;12.37;42.68;101359.28;10124896;29;20041;-77
2023/05/03 19:32:10;;;;;;;6.45;2.83;;;;;;;12.36;43.03;101360.22;10110115;29;20127;-78
2023/05/03 19:37:15;;;;;;;4.95;2.03;;;;;;;12.28;43.30;101354.50;10122867;29;20049;-76
2023/05/03 19:42:17;;;;;;;5.28;2.30;;;;;;;12.22;43.36;101365.72;10110241;29;20528;-78
2023/05/03 19:47:21;;;;;;;7.22;2.30;;;;;;;12.12;43.74;101361.03;10126674;29;20052;-78
2023/05/03 19:52:25;;;;;;;6.25;2.42;;;;;;;12.08;43.90;101367.59;10118317;29;20045;-77
2023/05/03 19:57:28;;;;;;;7.05;2.85;;;;;;;11.93;44.03;101361.47;10124852;29;20052;-77
2023/05/03 20:02:31;;;;;;;5.68;2.28;;;;;;;11.82;44.21;101355.13;10120622;29;20068;-78
2023/05/03 20:07:36;;;;;;;11.30;2.70;;;;;;;11.71;44.48;101361.25;10115808;29;20057;-78
2023/05/03 20:12:39;;;;;;;8.65;2.47;;;;;;;11.61;45.18;101368.28;10105491;29;20116;-78
2023/05/03 20:17:41;;;;;;;11.43;2.97;;;;;;;11.47;45.85;101366.53;10113428;29;20053;-78
2023/05/03 20:22:47;;;;;;;5.53;2.60;;;;;;;11.36;45.82;101367.28;10108409;29;20057;-78
2023/05/03 20:27:50;;;;;;;5.03;2.83;;;;;;;11.23;46.38;101367.25;10132199;23;20047;-77
2023/05/03 20:32:53;;;;;;;10.77;2.70;;;;;;;11.16;46.67;101363.28;10201751;29;20048;-77
2023/05/03 20:37:57;;;;;;;4.40;2.63;;;;;;;11.12;46.86;101359.06;10199823;29;20063;-78
2023/05/03 20:43:01;;;;;;;6.50;2.92;;;;;;;11.15;46.96;101358.00;10187931;29;20586;-77
2023/05/03 20:48:04;;;;;;;5.53;3.20;;;;;;;11.06;46.85;101352.25;10186016;29;20048;-77
2023/05/03 20:53:09;;;;;;;10.68;4.45;;;;;;;11.03;46.94;101351.59;10157992;29;20048;-77
2023/05/03 20:58:14;;;;;;;6.05;3.05;;;;;;;10.90;46.54;101346.19;10185382;29;20040;-77
2023/05/03 21:03:16;;;;;;;9.93;4.20;;;;;;;10.85;46.65;101348.31;10192555;29;20040;-78
2023/05/03 21:08:21;;;;;;;8.55;3.70;;;;;;;10.79;46.90;101344.19;10192736;29;20459;-78
2023/05/03 21:13:24;;;;;;;10.48;3.85;;;;;;;10.65;47.04;101344.28;10183370;29;20039;-77
2023/05/03 21:18:27;;;;;;;6.30;3.50;;;;;;;10.58;47.22;101346.47;10193121;29;20048;-77
2023/05/03 21:23:31;;;;;;;8.30;3.67;;;;;;;10.54;47.38;101342.28;10198311;29;20449;-77
2023/05/03 21:28:33;;;;;;;7.53;3.70;;;;;;;10.47;48.57;101349.00;10192357;29;20056;-77
2023/05/03 21:33:37;;;;;;;5.65;2.90;;;;;;;10.07;49.31;101342.69;10181485;29;20686;-77
2023/05/03 21:38:41;;;;;;;3.88;3.00;;;;;;;9.99;49.55;101343.16;10190657;29;20087;-76
2023/05/03 21:43:44;;;;;;;6.13;3.42;;;;;;;9.85;49.75;101337.78;10195394;29;20048;-76
2023/05/03 21:48:47;;;;;;;8.80;3.65;;;;;;;9.81;49.94;101330.88;10195576;29;20531;-76
2023/05/03 21:53:51;;;;;;;7.50;3.30;;;;;;;9.57;50.46;101323.41;10171327;29;20044;-79
2023/05/03 21:58:54;;;;;;;7.78;3.30;;;;;;;9.49;50.99;101323.88;10200161;29;20068;-78
2023/05/03 22:03:57;;;;;;;5.70;3.28;;;;;;;9.30;51.35;101320.59;10191203;29;20055;-77
2023/05/03 22:09:01;;;;;;;4.82;3.05;;;;;;;9.37;51.04;101318.41;10196657;29;20534;-77
2023/05/03 22:14:04;;;;;;;7.85;3.45;;;;;;;9.20;50.90;101317.59;10194110;29;20423;-77
2023/05/03 22:19:10;;;;;;;8.00;4.03;;;;;;;9.01;51.33;101319.66;10192662;29;20048;-78
2023/05/03 22:24:14;;;;;;;8.35;3.67;;;;;;;9.00;51.65;101320.63;10201176;29;20683;-77
2023/05/03 22:29:17;;;;;;;9.30;3.50;;;;;;;8.92;51.96;101325.59;10197224;29;20131;-78
2023/05/03 22:34:21;;;;;;;8.63;3.50;;;;;;;8.88;52.21;101327.56;10178422;29;20138;-78
2023/05/03 22:39:25;;;;;;;10.32;4.10;;;;;;;9.02;52.40;101316.03;10199305;29;20052;-77
2023/05/03 22:44:28;;;;;;;8.52;4.78;;;;;;;9.21;52.38;101316.63;10188853;29;20052;-78
2023/05/03 22:49:31;;;;;;;10.25;4.32;;;;;;;9.42;52.07;101316.31;10192226;29;20047;-78
2023/05/03 22:54:35;;;;;;;7.82;4.68;;;;;;;9.19;52.28;101318.56;10187247;29;20115;-77
2023/05/03 22:59:38;;;;;;;6.90;4.43;;;;;;;9.04;52.97;101314.97;10186982;29;20032;-77
2023/05/03 23:04:40;;;;;;;;;;;;;;;8.96;53.36;101316.41;10194328;29;20538;-78
2023/05/03 23:09:47;;;;;;;13.52;4.80;;;;;;;8.93;53.49;101297.81;10186460;29;20013;-77
2023/05/03 23:14:50;;;;;;;8.75;4.53;;;;;;;8.93;53.67;101296.00;10189559;29;20082;-77
2023/05/03 23:19:53;;;;;;;10.70;5.40;;;;;;;8.70;53.95;101286.66;10198084;29;20039;-77
2023/05/03 23:24:57;;;;;;;8.23;4.63;;;;;;;8.58;54.69;101282.00;10196203;29;20044;-76